Time;durP1;ratioP1;P1;durP2;ratioP2;P2;SDS_P1;SDS_P2;PMS_P1;PMS_P2;Temp;Humidity;BMP_temperature;BMP_pressure;BME280_temperature;BME280_humidity;BME280_pressure;Samples;Min_cycle;Max_cycle;Signal;HPM_P1;HPM_P2
2023/08/01 00:01:32;;;;;;;7.97;1.73;;;;;;;14.15;91.77;99331.34;5032355;28;20104;-46
2023/08/01 00:03:59;;;;;;;11.32;2.08;;;;;;;14.14;91.80;99337.31;5031212;28;20068;-45
2023/08/01 00:06:26;;;;;;;12.35;3.10;;;;;;;14.11;91.95;99346.47;5032327;28;20080;-46
2023/08/01 00:08:53;;;;;;;33.38;3.63;;;;;;;14.08;91.93;99339.72;5032835;28;20095;-45
2023/08/01 00:11:20;;;;;;;11.75;2.53;;;;;;;14.02;92.21;99342.13;5031353;28;20033;-45
2023/08/01 00:13:47;;;;;;;17.58;2.50;;;;;;;14.01;92.27;99331.38;5028537;28;20111;-47
2023/08/01 00:16:13;;;;;;;9.38;1.88;;;;;;;13.99;92.28;99342.13;5029494;28;20042;-45
2023/08/01 00:18:40;;;;;;;21.55;2.92;;;;;;;13.94;92.61;99346.13;5028830;28;20443;-46
2023/08/01 00:21:10;;;;;;;9.55;2.13;;;;;;;13.92;92.61;99358.84;5029050;28;20053;-45
2023/08/01 00:23:37;;;;;;;22.77;3.72;;;;;;;13.90;92.72;99345.31;5032049;28;20059;-47
2023/08/01 00:26:04;;;;;;;9.60;2.28;;;;;;;13.87;92.71;99343.34;5032257;28;20042;-45
2023/08/01 00:28:31;;;;;;;10.13;3.58;;;;;;;13.88;92.81;99358.03;5032397;28;20045;-48
2023/08/01 00:31:05;;;;;;;9.32;2.25;;;;;;;13.87;92.71;99357.25;5031024;28;20065;-45
2023/08/01 00:33:32;;;;;;;11.25;2.42;;;;;;;13.88;92.77;99358.84;5032111;28;20041;-45
2023/08/01 00:35:59;;;;;;;12.57;2.85;;;;;;;13.85;92.72;99358.84;5030222;28;20054;-47
2023/08/01 00:38:27;;;;;;;12.68;2.83;;;;;;;13.80;93.14;99359.25;5032540;28;20053;-50
2023/08/01 00:40:53;;;;;;;13.23;2.78;;;;;;;13.78;93.17;99359.66;5031696;28;20529;-46
2023/08/01 00:43:20;;;;;;;12.93;2.25;;;;;;;13.76;92.92;99356.50;5031818;28;20042;-47
2023/08/01 00:45:48;;;;;;;7.30;1.85;;;;;;;13.76;93.08;99362.06;5031882;28;20453;-47
2023/08/01 00:48:15;;;;;;;6.97;2.95;;;;;;;13.74;93.02;99353.28;5031321;28;20376;-46
2023/08/01 00:50:42;;;;;;;9.13;1.90;;;;;;;13.71;93.30;99356.91;5030501;28;20052;-45
2023/08/01 00:53:09;;;;;;;17.90;3.78;;;;;;;13.70;93.28;99362.84;5023541;28;20056;-45
2023/08/01 00:55:36;;;;;;;14.88;3.38;;;;;;;13.69;93.38;99358.47;5030986;28;20115;-46
2023/08/01 00:58:03;;;;;;;6.45;2.38;;;;;;;13.65;93.29;99361.28;5029797;28;20091;-45
2023/08/01 01:00:30;;;;;;;15.65;2.95;;;;;;;13.63;93.33;99360.88;5029834;28;20053;-47
2023/08/01 01:02:57;;;;;;;9.43;1.90;;;;;;;13.62;93.55;99367.63;5029355;28;20049;-45
2023/08/01 01:05:25;;;;;;;9.20;2.25;;;;;;;13.66;93.62;99367.63;5031472;28;20037;-45
2023/08/01 01:07:52;;;;;;;13.10;2.70;;;;;;;13.68;93.39;99371.59;5031424;28;20037;-47
2023/08/01 01:10:19;;;;;;;7.90;2.25;;;;;;;13.71;93.54;99367.22;5031299;28;20045;-45
2023/08/01 01:12:47;;;;;;;18.63;3.33;;;;;;;13.71;93.41;99370.81;5031208;28;20132;-46
2023/08/01 01:15:14;;;;;;;11.57;2.70;;;;;;;13.71;93.33;99370.81;5031263;28;20033;-46
2023/08/01 01:17:41;;;;;;;13.27;2.20;;;;;;;13.71;93.33;99379.16;5031358;28;20111;-45
2023/08/01 01:20:08;;;;;;;7.55;2.10;;;;;;;13.72;93.50;99377.94;5030193;28;20141;-45
2023/08/01 01:22:36;;;;;;;14.63;2.95;;;;;;;13.73;93.53;99373.97;5031182;28;20077;-47
2023/08/01 01:25:06;;;;;;;11.40;3.15;;;;;;;13.72;93.34;99375.16;5031117;28;20045;-45
2023/08/01 01:27:35;;;;;;;12.90;3.03;;;;;;;13.70;93.37;99368.41;5027512;28;20053;-46
2023/08/01 01:30:04;;;;;;;5.47;1.90;;;;;;;13.71;93.57;99370.00;5031458;28;20049;-46
2023/08/01 01:32:31;;;;;;;9.82;3.17;;;;;;;13.70;93.28;99358.09;5030604;28;20046;-45
2023/08/01 01:34:58;;;;;;;13.23;3.85;;;;;;;13.64;93.52;99354.09;5031189;28;20056;-46
2023/08/01 01:37:25;;;;;;;14.60;2.47;;;;;;;13.63;93.67;99360.88;5030926;28;20045;-46
2023/08/01 01:39:52;;;;;;;9.10;2.33;;;;;;;13.61;93.62;99346.56;5031346;28;20108;-45
2023/08/01 01:42:18;;;;;;;10.48;3.13;;;;;;;13.58;93.75;99355.69;5030837;28;20133;-45
2023/08/01 01:44:45;;;;;;;7.72;3.13;;;;;;;13.57;93.84;99350.53;5030507;28;20049;-48
2023/08/01 01:47:12;;;;;;;7.35;2.30;;;;;;;13.56;93.82;99352.53;5031081;28;20041;-45
2023/08/01 01:49:38;;;;;;;10.27;2.50;;;;;;;13.55;94.05;99350.97;5029293;28;20037;-46
2023/08/01 01:52:06;;;;;;;10.63;2.78;;;;;;;13.54;93.90;99352.13;5029012;28;20050;-47
2023/08/01 01:54:32;;;;;;;14.00;2.33;;;;;;;13.55;93.97;99339.84;5023331;28;20041;-46
2023/08/01 01:56:59;;;;;;;9.63;2.67;;;;;;;13.55;94.02;99345.41;5030927;28;20076;-49
2023/08/01 01:59:26;;;;;;;9.50;2.35;;;;;;;13.51;94.14;99344.59;5027681;28;20061;-47
2023/08/01 02:01:53;;;;;;;13.63;3.20;;;;;;;13.51;93.96;99347.38;5023828;28;20068;-45
2023/08/01 02:04:20;;;;;;;9.13;2.30;;;;;;;13.49;94.09;99335.06;5027178;28;20037;-48
2023/08/01 02:06:47;;;;;;;8.73;3.40;;;;;;;13.46;93.92;99342.22;5025350;28;20132;-45
2023/08/01 02:09:14;;;;;;;7.78;2.28;;;;;;;13.43;94.07;99340.22;5032322;28;20029;-46
2023/08/01 02:11:41;;;;;;;6.32;1.83;;;;;;;13.42;94.16;99347.00;5030871;28;20045;-52
2023/08/01 02:14:08;;;;;;;10.35;2.25;;;;;;;13.39;94.41;99347.78;5033173;28;20073;-46
2023/08/01 02:16:36;;;;;;;9.95;2.10;;;;;;;13.37;94.12;99344.59;5033769;28;20072;-46
2023/08/01 02:19:03;;;;;;;7.50;2.00;;;;;;;13.34;94.37;99350.97;5032469;28;20388;-48
2023/08/01 02:21:29;;;;;;;11.55;2.35;;;;;;;13.29;94.44;99348.59;5033589;28;20045;-47
2023/08/01 02:23:57;;;;;;;10.32;3.25;;;;;;;13.26;94.40;99343.81;5034227;28;20451;-45
2023/08/01 02:26:24;;;;;;;10.18;2.30;;;;;;;13.22;94.49;99343.00;5034492;28;20041;-45
2023/08/01 02:28:50;;;;;;;8.43;2.13;;;;;;;13.19;94.66;99338.25;5032956;28;20128;-45
2023/08/01 02:31:17;;;;;;;8.90;1.77;;;;;;;13.15;94.77;99337.47;5034327;28;20045;-45
2023/08/01 02:33:44;;;;;;;7.22;2.60;;;;;;;13.13;94.64;99329.50;5034017;28;20046;-45
2023/08/01 02:36:11;;;;;;;9.48;2.08;;;;;;;13.10;94.76;99332.31;5034416;28;20049;-46
2023/08/01 02:38:38;;;;;;;10.25;2.13;;;;;;;13.06;94.52;99331.47;5032581;28;20068;-48
2023/08/01 02:41:05;;;;;;;8.70;2.42;;;;;;;13.02;94.66;99339.00;5034168;28;20135;-45
2023/08/01 02:43:31;;;;;;;9.80;2.45;;;;;;;13.01;94.69;99337.41;5033862;28;20443;-46
2023/08/01 02:46:00;;;;;;;3.22;1.75;;;;;;;13.01;94.85;99351.31;5033386;28;20052;-46
2023/08/01 02:48:26;;;;;;;8.45;2.08;;;;;;;12.99;94.85;99346.16;5027870;28;20055;-45
2023/08/01 02:50:53;;;;;;;7.95;2.08;;;;;;;12.98;94.72;99340.97;5034131;28;20104;-45
2023/08/01 02:53:20;;;;;;;7.00;1.83;;;;;;;12.95;94.93;99333.44;5028684;28;20099;-47
2023/08/01 02:55:47;;;;;;;9.65;1.70;;;;;;;12.94;94.84;99354.09;5032715;28;20126;-46
2023/08/01 02:58:14;;;;;;;6.78;1.73;;;;;;;12.91;94.80;99339.00;5030736;28;20487;-45
2023/08/01 03:00:40;;;;;;;6.32;1.55;;;;;;;12.91;94.78;99346.53;5030705;28;20059;-45
2023/08/01 03:03:08;;;;;;;11.57;3.17;;;;;;;12.90;95.00;99342.16;5030907;28;20084;-46
2023/08/01 03:05:37;;;;;;;12.40;2.08;;;;;;;12.88;95.27;99350.91;5032789;28;20620;-46
2023/08/01 03:08:05;;;;;;;8.85;2.47;;;;;;;12.88;95.29;99337.00;5032305;28;20526;-46
2023/08/01 03:10:33;;;;;;;7.50;1.95;;;;;;;12.86;95.45;99347.72;5032676;28;20407;-46
2023/08/01 03:13:03;;;;;;;9.10;2.80;;;;;;;12.84;95.50;99344.53;5032163;28;20045;-45
2023/08/01 03:15:30;;;;;;;5.95;2.25;;;;;;;12.82;95.56;99347.72;5031392;28;20582;-45
2023/08/01 03:17:56;;;;;;;7.82;2.78;;;;;;;12.83;95.52;99340.19;5031922;28;20045;-47
2023/08/01 03:20:23;;;;;;;11.48;2.70;;;;;;;12.83;95.45;99354.88;5027460;28;20045;-51
2023/08/01 03:22:50;;;;;;;7.43;1.90;;;;;;;12.81;95.44;99348.88;5032129;28;20507;-49
2023/08/01 03:25:17;;;;;;;10.13;3.05;;;;;;;12.79;95.71;99354.03;5032602;28;20041;-47
2023/08/01 03:27:44;;;;;;;9.18;2.38;;;;;;;12.79;95.86;99350.47;5030029;28;20089;-48
2023/08/01 03:30:11;;;;;;;11.63;1.98;;;;;;;12.80;96.02;99346.50;5031510;28;20045;-48
2023/08/01 03:32:37;;;;;;;10.32;2.33;;;;;;;12.79;95.77;99342.13;5033251;28;20103;-52
2023/08/01 03:35:05;;;;;;;8.98;2.03;;;;;;;12.78;95.98;99341.38;5031690;28;20053;-47
2023/08/01 03:37:32;;;;;;;8.98;2.00;;;;;;;12.76;96.10;99332.59;5028520;28;20488;-46
2023/08/01 03:39:59;;;;;;;12.10;2.83;;;;;;;12.78;96.29;99343.34;5031612;28;20049;-45
2023/08/01 03:42:26;;;;;;;13.82;2.67;;;;;;;12.78;96.57;99335.81;5032934;28;20095;-45
2023/08/01 03:44:54;;;;;;;13.13;2.80;;;;;;;12.80;96.74;99341.75;5032168;28;20041;-45
2023/08/01 03:47:21;;;;;;;10.48;2.17;;;;;;;12.85;96.78;99340.56;5030000;28;20045;-48
2023/08/01 03:49:51;;;;;;;10.70;2.67;;;;;;;12.88;97.07;99345.34;5030579;28;20045;-47
2023/08/01 03:52:19;;;;;;;17.75;2.33;;;;;;;12.93;96.93;99352.47;5031520;28;20045;-47
2023/08/01 03:54:46;;;;;;;11.70;2.00;;;;;;;12.95;97.14;99338.97;5031861;28;20052;-46
2023/08/01 03:57:12;;;;;;;10.02;4.05;;;;;;;13.00;96.87;99349.72;5030612;28;20095;-45
2023/08/01 03:59:40;;;;;;;8.25;2.15;;;;;;;13.00;96.73;99341.41;5030999;28;20053;-48
2023/08/01 04:02:07;;;;;;;8.63;1.95;;;;;;;13.00;96.98;99347.72;5013741;28;20042;-48
2023/08/01 04:04:34;;;;;;;14.15;2.63;;;;;;;12.99;96.97;99348.13;5030232;28;20041;-45
2023/08/01 04:07:00;;;;;;;10.00;2.05;;;;;;;12.97;97.05;99353.28;5031563;28;20065;-46
2023/08/01 04:09:27;;;;;;;8.20;1.88;;;;;;;12.93;97.37;99350.50;5032043;28;20045;-46
2023/08/01 04:11:54;;;;;;;11.02;2.75;;;;;;;12.90;97.52;99354.06;5031712;28;20045;-46
2023/08/01 04:14:21;;;;;;;11.45;2.20;;;;;;;12.91;97.52;99349.31;5030313;28;20395;-45
2023/08/01 04:16:48;;;;;;;11.02;1.88;;;;;;;12.91;97.92;99349.31;5030060;28;20037;-47
2023/08/01 04:19:15;;;;;;;7.78;1.80;;;;;;;12.92;97.71;99362.03;5024355;28;20842;-47
2023/08/01 04:21:44;;;;;;;11.35;2.15;;;;;;;12.93;97.67;99360.81;5030801;28;20459;-47
2023/08/01 04:24:14;;;;;;;12.02;2.88;;;;;;;12.92;97.62;99367.56;5032050;28;20045;-46
2023/08/01 04:26:40;;;;;;;11.60;1.58;;;;;;;12.90;97.83;99369.94;5032169;28;20058;-46
2023/08/01 04:29:08;;;;;;;10.23;2.10;;;;;;;12.87;97.67;99376.31;5029071;28;20048;-46
2023/08/01 04:31:34;;;;;;;6.57;1.50;;;;;;;12.84;97.73;99375.88;5031730;28;20483;-45
2023/08/01 04:34:01;;;;;;;9.23;2.20;;;;;;;12.87;98.05;99381.84;5031814;28;20049;-46
2023/08/01 04:36:28;;;;;;;8.35;2.33;;;;;;;12.87;98.39;99387.41;5032189;28;20045;-46
2023/08/01 04:38:55;;;;;;;7.20;1.65;;;;;;;12.89;98.23;99396.13;5031899;28;20053;-46
2023/08/01 04:41:21;;;;;;;4.45;2.00;;;;;;;12.92;98.41;99396.13;5031970;28;20038;-47
2023/08/01 04:43:48;;;;;;;5.32;1.85;;;;;;;12.95;98.42;99394.53;5031830;28;20207;-46
2023/08/01 04:46:15;;;;;;;9.32;1.98;;;;;;;12.96;98.23;99387.81;5032083;28;20053;-47
2023/08/01 04:48:42;;;;;;;7.57;2.00;;;;;;;12.98;98.51;99385.44;5029851;28;20029;-45
2023/08/01 04:51:08;;;;;;;8.02;2.55;;;;;;;12.99;98.48;99385.06;5030702;28;20064;-47
2023/08/01 04:53:35;;;;;;;11.15;2.47;;;;;;;13.00;98.58;99383.06;5030288;28;20079;-46
2023/08/01 04:56:02;;;;;;;10.52;2.10;;;;;;;13.01;98.45;99392.97;5031890;28;20381;-46
2023/08/01 04:58:30;;;;;;;9.80;2.30;;;;;;;12.98;98.61;99388.19;5028167;28;20045;-46
2023/08/01 05:00:57;;;;;;;12.35;2.75;;;;;;;13.00;98.91;99394.94;5030556;28;20045;-46
2023/08/01 05:03:24;;;;;;;11.63;3.78;;;;;;;13.01;98.63;99393.78;5029384;28;20057;-46
2023/08/01 05:05:50;;;;;;;10.98;2.92;;;;;;;13.04;98.97;99403.31;5031707;28;20048;-47
2023/08/01 05:08:17;;;;;;;16.45;4.57;;;;;;;13.08;98.79;99404.16;5029059;28;20128;-46
2023/08/01 05:10:44;;;;;;;5.85;2.00;;;;;;;13.11;98.88;99408.91;5030708;28;20413;-45
2023/08/01 05:13:11;;;;;;;6.60;2.25;;;;;;;13.12;98.93;99407.72;5026821;28;20052;-46
2023/08/01 05:15:37;;;;;;;10.00;2.95;;;;;;;13.13;98.90;99412.09;5030327;28;20096;-46
2023/08/01 05:18:04;;;;;;;7.45;1.83;;;;;;;13.12;98.89;99407.72;5029008;28;20458;-45
2023/08/01 05:20:33;;;;;;;6.80;1.80;;;;;;;13.10;98.82;99408.13;5028261;28;20128;-45
2023/08/01 05:23:00;;;;;;;13.18;2.33;;;;;;;13.11;99.03;99397.78;5028085;28;20487;-46
2023/08/01 05:25:27;;;;;;;6.85;1.70;;;;;;;13.11;98.96;99406.13;5029902;28;20100;-46
2023/08/01 05:27:54;;;;;;;8.80;2.60;;;;;;;13.15;99.18;99420.81;5016734;28;20045;-46
2023/08/01 05:30:21;;;;;;;12.63;2.00;;;;;;;13.18;99.16;99403.38;5029878;28;20568;-45
2023/08/01 05:32:48;;;;;;;9.52;1.65;;;;;;;13.22;99.19;99410.50;5026618;28;21780;-47
2023/08/01 05:35:15;;;;;;;8.68;1.92;;;;;;;13.27;99.24;99412.09;5030865;28;20120;-46
2023/08/01 05:37:42;;;;;;;23.63;3.20;;;;;;;13.30;99.15;99411.31;5029762;28;20499;-48
2023/08/01 05:40:09;;;;;;;14.25;1.92;;;;;;;13.33;98.86;99410.53;5029831;28;20041;-46
2023/08/01 05:42:37;;;;;;;13.82;2.65;;;;;;;13.33;98.96;99416.88;5030203;28;20472;-46
2023/08/01 05:45:04;;;;;;;16.33;3.05;;;;;;;13.39;99.06;99414.50;5029950;28;20493;-46
2023/08/01 05:47:31;;;;;;;6.85;2.20;;;;;;;13.42;99.09;99424.84;5030849;28;20053;-46
2023/08/01 05:49:58;;;;;;;5.13;1.70;;;;;;;13.44;98.94;99414.13;5030988;28;20042;-46
2023/08/01 05:52:25;;;;;;;13.27;1.75;;;;;;;13.43;98.95;99409.72;5030579;28;20099;-47
2023/08/01 05:54:51;;;;;;;9.15;2.30;;;;;;;13.42;98.91;99410.94;5031170;28;20050;-46
2023/08/01 05:57:18;;;;;;;7.97;1.80;;;;;;;13.42;99.00;99408.16;5030948;28;20142;-45
2023/08/01 05:59:45;;;;;;;14.43;2.50;;;;;;;13.44;98.94;99405.78;5030301;28;20057;-48
2023/08/01 06:02:12;;;;;;;9.90;2.50;;;;;;;13.43;99.11;99404.97;5028996;28;20055;-48
2023/08/01 06:04:39;;;;;;;11.93;2.17;;;;;;;13.45;99.16;99410.13;5030808;28;20140;-46
2023/08/01 06:07:06;;;;;;;9.15;1.70;;;;;;;13.46;99.10;99411.72;5030933;28;20038;-49
2023/08/01 06:09:33;;;;;;;11.35;2.75;;;;;;;13.48;99.14;99417.66;5028938;28;20520;-46
2023/08/01 06:12:00;;;;;;;11.93;1.83;;;;;;;13.53;99.14;99420.06;5030834;28;20552;-48
2023/08/01 06:14:27;;;;;;;6.68;1.75;;;;;;;13.55;98.95;99417.69;5030782;28;20077;-48
2023/08/01 06:16:53;;;;;;;3.72;1.60;;;;;;;13.61;99.01;99415.31;5029561;28;20058;-45
2023/08/01 06:19:20;;;;;;;11.68;1.67;;;;;;;13.63;98.86;99410.94;5027404;28;20046;-48
2023/08/01 06:21:47;;;;;;;14.23;2.55;;;;;;;13.66;99.05;99409.34;5028143;28;20048;-48
2023/08/01 06:24:14;;;;;;;6.82;2.28;;;;;;;13.68;98.86;99415.31;5024479;28;20140;-46
2023/08/01 06:26:41;;;;;;;9.77;2.22;;;;;;;13.71;98.72;99409.75;5030436;28;20064;-48
2023/08/01 06:29:08;;;;;;;7.35;1.67;;;;;;;13.80;98.85;99412.91;5030559;28;20045;-46
2023/08/01 06:31:35;;;;;;;7.15;1.98;;;;;;;13.83;98.63;99412.09;5028257;28;20164;-45
2023/08/01 06:34:02;;;;;;;6.97;2.33;;;;;;;13.87;98.70;99421.22;5029087;28;20073;-46
2023/08/01 06:36:29;;;;;;;7.22;2.67;;;;;;;13.91;98.43;99416.47;5030664;28;20073;-45
2023/08/01 06:38:56;;;;;;;5.75;1.35;;;;;;;13.96;98.38;99415.25;5028264;28;20419;-46
2023/08/01 06:41:22;;;;;;;9.95;1.98;;;;;;;13.99;98.35;99415.25;5030554;28;20038;-46
2023/08/01 06:43:49;;;;;;;11.07;2.42;;;;;;;14.06;98.35;99408.88;5029814;28;20096;-47
2023/08/01 06:46:16;;;;;;;4.22;1.88;;;;;;;14.13;98.09;99411.66;5030779;28;20050;-47
2023/08/01 06:48:43;;;;;;;9.10;1.52;;;;;;;14.18;98.00;99411.25;5030128;28;20041;-48
2023/08/01 06:51:10;;;;;;;8.02;1.60;;;;;;;14.24;97.90;99420.00;5030577;28;20150;-47
2023/08/01 06:53:36;;;;;;;9.20;2.38;;;;;;;14.29;97.74;99422.34;5030843;28;20053;-47
2023/08/01 06:56:03;;;;;;;7.07;2.10;;;;;;;14.33;97.65;99417.59;5034016;28;20106;-46
2023/08/01 06:58:30;;;;;;;11.38;2.58;;;;;;;14.41;97.33;99413.59;5033889;28;20099;-47
2023/08/01 07:00:57;;;;;;;40.63;4.35;;;;;;;14.44;97.01;99412.78;5026366;28;20100;-46
2023/08/01 07:03:24;;;;;;;9.73;3.00;;;;;;;14.48;97.04;99408.78;5027241;28;20064;-45
2023/08/01 07:05:54;;;;;;;4.88;1.70;;;;;;;14.48;96.63;99406.00;5028094;28;20057;-46
2023/08/01 07:08:21;;;;;;;8.05;2.47;;;;;;;14.49;96.72;99409.59;5026059;28;20083;-47
2023/08/01 07:10:48;;;;;;;6.85;1.50;;;;;;;14.52;96.72;99394.84;5028900;28;20095;-47
2023/08/01 07:13:16;;;;;;;5.53;1.60;;;;;;;14.57;96.46;99413.94;5027613;28;20069;-46
2023/08/01 07:15:42;;;;;;;7.38;1.52;;;;;;;14.59;96.33;99425.44;5032012;28;20049;-45
2023/08/01 07:18:09;;;;;;;4.85;1.70;;;;;;;14.66;96.31;99431.00;5029159;28;20471;-46
2023/08/01 07:20:36;;;;;;;9.98;1.55;;;;;;;14.74;96.19;99423.41;5032676;28;20053;-47
2023/08/01 07:23:03;;;;;;;8.48;2.20;;;;;;;14.78;95.76;99415.81;5030927;28;20045;-48
2023/08/01 07:25:29;;;;;;;4.63;1.30;;;;;;;14.83;95.65;99423.75;5030589;28;20061;-47
2023/08/01 07:27:56;;;;;;;4.00;1.52;;;;;;;14.89;95.53;99428.50;5031252;28;20053;-46
2023/08/01 07:30:25;;;;;;;11.68;2.25;;;;;;;14.95;95.42;99426.91;5029771;28;20037;-47
2023/08/01 07:32:52;;;;;;;4.57;2.28;;;;;;;15.04;95.61;99424.44;5029890;28;20049;-46
2023/08/01 07:35:19;;;;;;;7.70;1.27;;;;;;;15.18;95.46;99441.09;5030617;28;20045;-48
2023/08/01 07:37:46;;;;;;;7.63;1.55;;;;;;;15.30;95.46;99436.25;5028722;28;20055;-47
2023/08/01 07:40:12;;;;;;;4.18;1.55;;;;;;;15.45;95.56;99438.53;5028396;28;20037;-45
2023/08/01 07:42:39;;;;;;;5.60;1.90;;;;;;;15.56;95.36;99438.47;5026305;28;20727;-47
2023/08/01 07:45:07;;;;;;;5.75;2.00;;;;;;;15.63;95.25;99435.63;5027454;28;20053;-49
2023/08/01 07:47:34;;;;;;;8.40;2.00;;;;;;;15.73;95.51;99432.75;5021011;28;20091;-46
2023/08/01 07:50:00;;;;;;;6.40;0.93;;;;;;;15.84;95.13;99438.22;5029817;28;20046;-45
2023/08/01 07:52:27;;;;;;;5.22;1.17;;;;;;;15.90;94.75;99431.00;5031390;28;20037;-47
2023/08/01 07:54:57;;;;;;;6.28;1.20;;;;;;;15.91;94.87;99432.59;5029571;28;20081;-46
2023/08/01 07:57:24;;;;;;;4.50;1.38;;;;;;;16.00;95.48;99429.31;5030820;28;20041;-46
2023/08/01 07:59:50;;;;;;;7.07;1.20;;;;;;;16.16;96.85;99435.94;5031335;28;20057;-46
2023/08/01 08:02:17;;;;;;;8.35;1.55;;;;;;;16.43;98.09;99436.84;5030453;28;20080;-46
2023/08/01 08:04:44;;;;;;;3.15;1.00;;;;;;;16.69;98.07;99424.19;5028515;28;20081;-49
2023/08/01 08:07:11;;;;;;;8.50;1.63;;;;;;;16.90;97.90;99432.31;5031664;28;20049;-51
2023/08/01 08:09:38;;;;;;;11.50;1.48;;;;;;;17.11;97.68;99430.41;5030516;28;20108;-47
2023/08/01 08:12:05;;;;;;;7.82;1.13;;;;;;;17.39;97.75;99427.22;5027647;28;20068;-49
2023/08/01 08:14:32;;;;;;;5.43;2.08;;;;;;;17.92;98.21;99424.38;5030245;28;20092;-45
2023/08/01 08:16:58;;;;;;;4.80;1.05;;;;;;;18.53;96.03;99436.06;5032382;28;20076;-44
2023/08/01 08:19:25;;;;;;;3.70;1.00;;;;;;;19.19;93.93;99432.28;5029093;28;20053;-47
2023/08/01 08:21:52;;;;;;;6.82;1.20;;;;;;;19.98;90.51;99444.84;5031391;28;20533;-49
2023/08/01 08:24:19;;;;;;;5.35;0.90;;;;;;;20.73;86.15;99438.00;5030675;28;20099;-46
2023/08/01 08:26:46;;;;;;;3.67;1.20;;;;;;;21.47;82.82;99441.41;5009501;28;20061;-44
2023/08/01 08:29:12;;;;;;;5.47;1.92;;;;;;;21.96;79.02;99444.69;5007917;28;20046;-47
2023/08/01 08:31:39;;;;;;;4.50;0.77;;;;;;;21.97;75.23;99448.28;5011152;28;20054;-47
2023/08/01 08:34:06;;;;;;;4.63;1.10;;;;;;;21.97;73.08;99439.84;5006261;28;20539;-44
2023/08/01 08:36:33;;;;;;;4.80;0.90;;;;;;;21.66;72.05;99439.59;5011488;28;20041;-50
2023/08/01 08:39:00;;;;;;;7.03;1.27;;;;;;;21.34;71.45;99434.97;5010158;28;20037;-48
2023/08/01 08:41:37;;;;;;;3.35;1.10;;;;;;;21.31;70.26;99421.84;4988246;28;20129;-49
2023/08/01 08:44:07;;;;;;;3.85;0.70;;;;;;;21.05;69.13;99426.59;5007646;28;20096;-45
2023/08/01 08:46:41;;;;;;;4.85;1.00;;;;;;;20.84;69.23;99418.78;4989641;28;20034;-46
2023/08/01 08:49:10;;;;;;;2.83;0.95;;;;;;;21.19;68.68;99417.75;5008525;28;20064;-50
2023/08/01 08:51:41;;;;;;;3.60;0.90;;;;;;;21.78;66.86;99419.88;5009773;28;20056;-48
2023/08/01 08:54:08;;;;;;;3.05;0.85;;;;;;;22.00;65.13;99419.19;4993751;28;20042;-46
2023/08/01 08:56:35;;;;;;;5.07;1.20;;;;;;;21.95;64.23;99425.41;5009504;28;20046;-49
2023/08/01 08:59:02;;;;;;;3.42;0.70;;;;;;;21.90;64.70;99428.78;4992894;28;20042;-45
2023/08/01 09:01:31;;;;;;;3.22;0.68;;;;;;;21.82;63.51;99419.75;5009767;28;20057;-44
2023/08/01 09:03:58;;;;;;;3.67;1.25;;;;;;;22.30;62.97;99412.88;5008984;28;20061;-44
2023/08/01 09:06:34;;;;;;;3.00;0.80;;;;;;;22.74;61.84;99425.03;5008245;28;20042;-46
2023/08/01 09:09:10;;;;;;;4.63;1.08;;;;;;;23.29;60.00;99409.19;5004497;28;20436;-45
2023/08/01 09:11:45;;;;;;;4.97;0.90;;;;;;;23.93;59.38;99422.31;5006929;28;20077;-48
2023/08/01 09:14:12;;;;;;;2.75;1.17;;;;;;;24.34;56.98;99426.66;5008107;28;20100;-51
2023/08/01 09:16:40;;;;;;;7.53;0.77;;;;;;;24.61;55.90;99418.16;5003343;28;20053;-45
2023/08/01 09:19:08;;;;;;;4.10;0.88;;;;;;;24.44;54.66;99407.63;5005979;28;20046;-46
2023/08/01 09:21:37;;;;;;;3.08;0.95;;;;;;;;;;5007668;28;20153;-47
2023/08/01 09:24:12;;;;;;;3.75;0.77;;;;;;;24.16;55.56;99396.31;5009646;28;20049;-46
2023/08/01 09:26:39;;;;;;;4.68;0.90;;;;;;;24.73;54.31;99408.69;5028326;28;20061;-47
2023/08/01 09:29:07;;;;;;;2.75;1.40;;;;;;;25.27;53.14;99421.19;5030104;28;20108;-46
2023/08/01 09:31:42;;;;;;;3.60;0.82;;;;;;;25.02;53.16;99407.44;5026644;28;20057;-48
2023/08/01 09:34:20;;;;;;;4.70;0.77;;;;;;;25.11;52.87;99410.22;5026366;28;20045;-49
2023/08/01 09:36:47;;;;;;;2.33;0.60;;;;;;;25.52;51.52;99408.72;5030322;28;20049;-48
2023/08/01 09:39:19;;;;;;;4.35;0.65;;;;;;;25.49;51.25;99415.34;5028053;28;20052;-46
2023/08/01 09:41:59;;;;;;;3.15;0.75;;;;;;;24.65;52.48;99418.78;5028179;28;20422;-46
2023/08/01 09:44:28;;;;;;;3.05;0.65;;;;;;;25.00;51.53;99413.56;5028917;28;20099;-46
2023/08/01 09:47:03;;;;;;;3.60;0.70;;;;;;;25.24;51.56;99416.47;5027703;28;20160;-46
2023/08/01 09:49:31;;;;;;;2.92;0.65;;;;;;;24.90;51.06;99405.56;5027806;28;20046;-53
2023/08/01 09:51:58;;;;;;;1.45;0.38;;;;;;;24.55;51.49;99420.03;5028294;28;20123;-48
2023/08/01 09:54:25;;;;;;;1.27;0.22;;;;;;;24.75;51.75;99414.66;5028940;28;20061;-47
2023/08/01 09:56:54;;;;;;;2.33;0.32;;;;;;;25.25;51.00;99406.72;5034200;28;20045;-48
2023/08/01 09:59:25;;;;;;;3.03;0.40;;;;;;;25.60;50.50;99402.19;5036822;28;20042;-52
2023/08/01 10:01:54;;;;;;;3.45;0.50;;;;;;;25.85;48.83;99404.59;5027846;28;20072;-47
2023/08/01 10:04:32;;;;;;;3.33;0.60;;;;;;;25.63;49.24;99411.81;5030621;28;20046;-47
2023/08/01 10:07:08;;;;;;;1.23;0.30;;;;;;;24.99;49.05;99414.84;5030528;28;20052;-48
2023/08/01 10:09:36;;;;;;;4.00;0.68;;;;;;;24.49;49.86;99404.94;5029720;28;20057;-46
2023/08/01 10:12:05;;;;;;;2.63;0.50;;;;;;;24.50;50.42;99389.53;5028182;28;20045;-46
2023/08/01 10:14:32;;;;;;;4.30;1.23;;;;;;;24.36;49.60;99401.50;5030904;28;20144;-46
2023/08/01 10:17:01;;;;;;;1.73;0.40;;;;;;;23.89;50.57;99395.44;5027930;28;20041;-51
2023/08/01 10:19:32;;;;;;;1.88;0.38;;;;;;;24.29;50.48;99406.69;5028739;28;20136;-50
2023/08/01 10:22:00;;;;;;;1.48;0.22;;;;;;;24.04;50.06;99402.09;5029711;28;20439;-46
2023/08/01 10:24:29;;;;;;;1.80;0.30;;;;;;;23.57;51.03;99405.25;5030446;28;20052;-46
2023/08/01 10:26:55;;;;;;;6.18;2.13;;;;;;;22.91;52.27;99412.28;5028092;28;20045;-46
2023/08/01 10:29:34;;;;;;;2.28;0.30;;;;;;;22.21;53.11;99399.50;5029894;28;20045;-48
2023/08/01 10:32:01;;;;;;;1.23;0.30;;;;;;;21.68;54.27;99394.88;5025516;28;20487;-46
2023/08/01 10:34:28;;;;;;;3.75;1.30;;;;;;;21.39;55.51;99388.59;5031340;28;20077;-46
2023/08/01 10:36:56;;;;;;;2.00;0.45;;;;;;;21.18;56.51;99384.44;5029642;28;20053;-47
2023/08/01 10:39:24;;;;;;;1.25;0.30;;;;;;;20.98;56.93;99387.41;5030822;28;20092;-46
2023/08/01 10:41:59;;;;;;;4.47;0.73;;;;;;;20.94;57.09;99386.72;5033014;28;20051;-46
2023/08/01 10:44:27;;;;;;;1.38;0.43;;;;;;;20.95;57.55;99393.94;5028835;28;20045;-46
2023/08/01 10:46:56;;;;;;;0.22;0.20;;;;;;;20.85;57.16;99394.25;5028524;28;20041;-49
2023/08/01 10:49:43;;;;;;;2.63;0.45;;;;;;;20.58;57.72;99397.47;5032954;28;20561;-47
2023/08/01 10:52:17;;;;;;;1.13;0.50;;;;;;;20.26;58.03;99400.38;5031271;28;20033;-47
2023/08/01 10:54:45;;;;;;;2.83;0.40;;;;;;;20.03;58.33;99388.13;5030093;28;20561;-50
2023/08/01 10:57:17;;;;;;;3.97;0.50;;;;;;;19.93;58.87;99394.81;5030815;28;20053;-49
2023/08/01 10:59:45;;;;;;;1.42;0.28;;;;;;;19.88;59.00;99394.53;5030648;28;20049;-46
2023/08/01 11:02:21;;;;;;;1.83;0.30;;;;;;;19.89;59.03;99385.66;5031831;28;20049;-47
2023/08/01 11:05:02;;;;;;;1.65;0.73;;;;;;;19.91;58.68;99391.63;5027901;28;20068;-47
2023/08/01 11:07:29;;;;;;;3.30;0.30;;;;;;;19.91;58.62;99402.06;5030295;28;20037;-49
2023/08/01 11:10:13;;;;;;;0.63;0.38;;;;;;;19.85;58.89;99401.84;5030645;28;20045;-49
2023/08/01 11:12:41;;;;;;;1.15;0.40;;;;;;;19.79;59.51;99399.97;5030868;28;20044;-49
2023/08/01 11:15:10;;;;;;;3.92;0.57;;;;;;;19.77;59.87;99394.81;5033529;28;20091;-47
2023/08/01 11:17:42;;;;;;;2.40;0.45;;;;;;;19.72;59.84;99392.53;5030276;28;20061;-46
2023/08/01 11:20:10;;;;;;;;;;;;;;;19.73;60.52;99388.50;5030279;28;20422;-49
2023/08/01 11:22:48;;;;;;;4.38;0.38;;;;;;;19.87;60.21;99376.91;5032011;28;19925;-47
2023/08/01 11:25:15;;;;;;;0.63;0.30;;;;;;;20.11;60.41;99385.09;5032231;28;20062;-47
2023/08/01 11:27:42;;;;;;;2.35;0.57;;;;;;;20.30;60.49;99392.66;5029881;28;20052;-51
2023/08/01 11:30:09;;;;;;;3.97;1.20;;;;;;;20.50;60.37;99404.50;5031884;28;20044;-46
2023/08/01 11:32:38;;;;;;;0.77;0.20;;;;;;;20.65;59.96;99403.66;5030914;28;20513;-49
2023/08/01 11:35:06;;;;;;;4.15;0.32;;;;;;;20.78;59.29;99395.28;5031401;28;20076;-50